Time;durP1;ratioP1;P1;durP2;ratioP2;P2;SDS_P1;SDS_P2;PMS_P1;PMS_P2;Temp;Humidity;BMP_temperature;BMP_pressure;BME280_temperature;BME280_humidity;BME280_pressure;Samples;Min_cycle;Max_cycle;Signal;HPM_P1;HPM_P2
2022/09/23 00:00:57;;;;;;;3.53;2.53;;;14.20;93.10;;;;;;5006456;28;20481;-83
2022/09/23 00:03:36;;;;;;;3.90;2.70;;;14.20;93.30;;;;;;5023845;28;20532;-82
2022/09/23 00:06:12;;;;;;;3.90;3.60;;;14.10;93.20;;;;;;5005251;28;20446;-83
2022/09/23 00:08:46;;;;;;;3.20;2.77;;;14.10;93.50;;;;;;5025790;28;20481;-82
2022/09/23 00:11:23;;;;;;;3.27;3.03;;;14.10;93.30;;;;;;5008480;28;20466;-83
2022/09/23 00:13:58;;;;;;;2.33;2.13;;;13.90;93.50;;;;;;5012348;28;20986;-84
2022/09/23 00:16:34;;;;;;;2.70;2.10;;;13.80;93.80;;;;;;5007010;28;20450;-83
2022/09/23 00:19:05;;;;;;;3.80;3.10;;;13.80;94.10;;;;;;5011454;28;20445;-84
2022/09/23 00:21:39;;;;;;;3.50;2.13;;;13.80;94.00;;;;;;5008042;28;20544;-84
2022/09/23 00:24:15;;;;;;;2.67;2.47;;;13.80;94.20;;;;;;5010982;28;20510;-84
2022/09/23 00:26:46;;;;;;;2.33;2.13;;;13.70;94.50;;;;;;5011076;28;20460;-82
2022/09/23 00:29:36;;;;;;;3.30;2.53;;;13.80;94.40;;;;;;5009662;28;20458;-84
2022/09/23 00:32:10;;;;;;;2.47;2.27;;;13.90;94.10;;;;;;5009608;28;20995;-84
2022/09/23 00:34:39;;;;;;;4.43;2.30;;;13.90;93.90;;;;;;5020213;28;20550;-83
2022/09/23 00:37:37;;;;;;;3.07;2.63;;;13.80;94.10;;;;;;5014147;28;20496;-83
2022/09/23 00:40:11;;;;;;;2.97;2.63;;;13.80;94.30;;;;;;5014476;28;20489;-84
2022/09/23 00:42:51;;;;;;;2.57;2.17;;;13.80;94.00;;;;;;5018815;28;20543;-83
2022/09/23 00:45:27;;;;;;;4.13;2.53;;;13.80;94.20;;;;;;5027155;28;20468;-82
2022/09/23 00:48:05;;;;;;;2.77;2.47;;;13.60;94.40;;;;;;5003882;28;20525;-82
2022/09/23 00:50:55;;;;;;;4.50;2.80;;;13.70;94.50;;;;;;5027571;28;20462;-83
2022/09/23 00:53:39;;;;;;;2.63;2.43;;;13.70;94.50;;;;;;5026475;28;20481;-82
2022/09/23 00:56:11;;;;;;;3.00;2.67;;;13.70;94.50;;;;;;5015932;28;20458;-83
2022/09/23 00:58:43;;;;;;;3.40;2.80;;;13.70;94.50;;;;;;5014633;28;20457;-83
2022/09/23 01:01:13;;;;;;;3.60;2.20;;;13.60;94.60;;;;;;5009543;28;20532;-83
2022/09/23 01:03:50;;;;;;;2.50;2.30;;;13.60;94.90;;;;;;5009778;28;20474;-83
2022/09/23 01:06:29;;;;;;;5.40;2.67;;;13.50;94.50;;;;;;5008955;28;20527;-83
2022/09/23 01:08:58;;;;;;;2.60;2.40;;;13.50;94.70;;;;;;5026502;28;20485;-83
2022/09/23 01:11:43;;;;;;;2.77;2.03;;;13.40;94.80;;;;;;5013354;28;21159;-84
2022/09/23 01:14:51;;;;;;;3.53;2.20;;;13.40;95.00;;;;;;5018983;28;20987;-83
2022/09/23 01:17:50;;;;;;;2.87;2.47;;;13.50;94.90;;;;;;5025439;28;20455;-84
2022/09/23 01:20:54;;;;;;;3.27;2.70;;;13.30;95.10;;;;;;5014209;28;20461;-84
2022/09/23 01:24:01;;;;;;;2.53;2.37;;;13.30;95.30;;;;;;5012856;28;21019;-83
2022/09/23 01:26:52;;;;;;;3.87;3.07;;;13.40;95.20;;;;;;5017379;28;20518;-83
2022/09/23 01:29:45;;;;;;;3.00;2.50;;;13.20;95.30;;;;;;5019753;28;20469;-81
2022/09/23 01:32:30;;;;;;;2.70;2.50;;;13.30;96.20;;;;;;5013535;28;20474;-83
2022/09/23 01:35:06;;;;;;;7.40;3.27;;;13.40;95.70;;;;;;5028778;28;20518;-84
2022/09/23 01:37:57;;;;;;;7.27;2.40;;;13.40;95.40;;;;;;5017194;28;20446;-84
2022/09/23 01:40:38;;;;;;;3.10;2.77;;;13.30;95.50;;;;;;5011761;28;20554;-83
2022/09/23 01:43:14;;;;;;;3.90;3.00;;;13.40;95.80;;;;;;5014157;28;20498;-83
2022/09/23 01:45:45;;;;;;;2.90;2.60;;;13.50;95.60;;;;;;5023640;28;20874;-83
2022/09/23 01:48:37;;;;;;;3.10;2.90;;;13.50;95.70;;;;;;5013278;28;20466;-83
2022/09/23 01:51:19;;;;;;;3.40;2.93;;;13.30;95.90;;;;;;5009479;28;20450;-82
2022/09/23 01:54:19;;;;;;;3.23;2.63;;;13.40;95.90;;;;;;5008567;28;20483;-82
2022/09/23 01:56:51;;;;;;;3.37;3.17;;;13.30;95.80;;;;;;5028361;28;20462;-81
2022/09/23 01:59:25;;;;;;;2.70;2.50;;;13.30;95.80;;;;;;5026683;28;20450;-82
2022/09/23 02:02:04;;;;;;;3.37;2.77;;;13.30;95.90;;;;;;5006405;28;20494;-84
2022/09/23 02:04:43;;;;;;;2.83;2.57;;;13.30;96.00;;;;;;5015648;28;20454;-83
2022/09/23 02:07:23;;;;;;;4.90;3.20;;;13.40;95.90;;;;;;5017210;28;20485;-82
2022/09/23 02:09:57;;;;;;;3.13;2.77;;;13.30;95.90;;;;;;5021655;28;20483;-82
2022/09/23 02:12:28;;;;;;;3.60;2.50;;;13.30;96.10;;;;;;5025488;28;20471;-82
2022/09/23 02:15:04;;;;;;;3.17;2.87;;;13.40;95.80;;;;;;5034225;28;20478;-82
2022/09/23 02:17:46;;;;;;;3.00;2.70;;;13.30;95.90;;;;;;5024633;28;20442;-83
2022/09/23 02:20:19;;;;;;;3.37;2.73;;;13.40;95.80;;;;;;5032148;28;20450;-83
2022/09/23 02:23:06;;;;;;;2.73;2.50;;;13.40;95.90;;;;;;5026856;28;20478;-84
2022/09/23 02:25:45;;;;;;;3.17;2.73;;;13.40;95.80;;;;;;5031585;28;20449;-84
2022/09/23 02:28:18;;;;;;;4.00;2.77;;;13.40;95.70;;;;;;5015036;28;20446;-82
2022/09/23 02:30:55;;;;;;;4.30;2.90;;;13.30;95.80;;;;;;5014853;28;20473;-83
2022/09/23 02:34:01;;;;;;;3.50;2.60;;;13.30;95.90;;;;;;5016934;28;20492;-83
2022/09/23 02:36:48;;;;;;;2.50;2.30;;;13.10;96.10;;;;;;5032013;28;20564;-82
2022/09/23 02:39:21;;;;;;;2.63;2.43;;;13.10;96.30;;;;;;5012420;28;20565;-82
2022/09/23 02:42:04;;;;;;;3.47;3.07;;;13.20;96.00;;;;;;5015562;28;20501;-81
2022/09/23 02:44:32;;;;;;;4.13;2.80;;;13.10;95.80;;;;;;5014187;28;20464;-85
2022/09/23 02:46:59;;;;;;;2.70;2.40;;;12.90;96.00;;;;;;5008006;28;20471;-84
2022/09/23 02:49:29;;;;;;;2.40;2.30;;;12.80;96.50;;;;;;5014300;28;20467;-81
2022/09/23 02:52:03;;;;;;;2.90;2.70;;;12.90;96.80;;;;;;5021726;28;20995;-85
2022/09/23 02:54:32;;;;;;;2.83;2.40;;;12.70;96.60;;;;;;5023492;28;20474;-82
2022/09/23 02:57:02;;;;;;;4.30;3.13;;;13.00;96.50;;;;;;5012231;28;20454;-83
2022/09/23 02:59:30;;;;;;;3.03;2.60;;;12.80;96.20;;;;;;5015353;28;20457;-82
2022/09/23 03:02:26;;;;;;;3.40;2.70;;;12.70;96.40;;;;;;5008324;28;20470;-82
2022/09/23 03:05:17;;;;;;;3.30;2.33;;;12.60;96.80;;;;;;5005861;28;20478;-82
2022/09/23 03:08:18;;;;;;;6.83;2.70;;;12.50;97.00;;;;;;5011683;28;20497;-82
2022/09/23 03:10:52;;;;;;;2.60;2.40;;;12.40;97.00;;;;;;5014252;28;20956;-82
2022/09/23 03:13:50;;;;;;;3.90;2.70;;;12.40;97.60;;;;;;5004428;28;20981;-82
2022/09/23 03:16:34;;;;;;;3.77;3.03;;;12.50;97.50;;;;;;5007093;28;20465;-81
2022/09/23 03:19:16;;;;;;;3.27;2.63;;;12.50;97.10;;;;;;5008767;28;20454;-82
2022/09/23 03:22:04;;;;;;;3.80;2.73;;;12.40;97.40;;;;;;5025998;28;21028;-82
2022/09/23 03:24:33;;;;;;;3.63;2.30;;;12.50;97.30;;;;;;5011850;28;20474;-83
2022/09/23 03:27:04;;;;;;;3.13;2.70;;;12.60;96.80;;;;;;5028878;28;20454;-83
2022/09/23 03:29:35;;;;;;;2.67;2.20;;;12.60;96.80;;;;;;5021753;28;20442;-82
2022/09/23 03:32:06;;;;;;;2.40;2.20;;;12.60;96.80;;;;;;5011320;28;20720;-84
2022/09/23 03:34:35;;;;;;;3.53;3.23;;;12.40;96.70;;;;;;5015789;28;20474;-84
2022/09/23 03:37:39;;;;;;;3.37;2.60;;;12.30;97.10;;;;;;5013823;28;20446;-84
2022/09/23 03:40:30;;;;;;;3.13;2.53;;;12.40;97.20;;;;;;5014326;28;20458;-83
2022/09/23 03:43:00;;;;;;;2.40;2.30;;;12.40;97.30;;;;;;5012898;28;20482;-81
2022/09/23 03:45:31;;;;;;;4.70;2.97;;;12.60;97.10;;;;;;5013587;28;20478;-82
2022/09/23 03:47:58;;;;;;;3.40;2.37;;;12.70;96.80;;;;;;5013179;28;21038;-82
2022/09/23 03:50:25;;;;;;;2.40;2.20;;;12.70;96.70;;;;;;5013068;28;20458;-83
2022/09/23 03:52:52;;;;;;;4.40;2.67;;;12.60;96.80;;;;;;5012730;28;20532;-83
2022/09/23 03:55:20;;;;;;;2.33;2.20;;;12.60;96.90;;;;;;5013065;28;20489;-81
2022/09/23 03:57:47;;;;;;;2.37;2.17;;;12.50;96.90;;;;;;5010054;28;20465;-83
2022/09/23 04:00:15;;;;;;;3.63;2.40;;;12.40;97.10;;;;;;5011396;28;20509;-83
2022/09/23 04:02:41;;;;;;;2.77;2.17;;;12.30;97.30;;;;;;5015649;28;21096;-82
2022/09/23 04:05:09;;;;;;;2.80;2.60;;;12.30;97.50;;;;;;5010237;28;21031;-83
2022/09/23 04:07:36;;;;;;;3.33;2.50;;;12.30;97.70;;;;;;5009620;28;20465;-83
2022/09/23 04:10:04;;;;;;;4.70;2.57;;;12.50;97.40;;;;;;5010805;28;20454;-81
2022/09/23 04:12:32;;;;;;;4.10;3.13;;;12.60;97.00;;;;;;5010967;28;20482;-83
2022/09/23 04:14:59;;;;;;;4.73;2.70;;;12.60;97.00;;;;;;5005616;28;20489;-81
2022/09/23 04:17:27;;;;;;;3.23;2.87;;;12.60;97.00;;;;;;5008262;28;20978;-82
2022/09/23 04:19:54;;;;;;;3.30;3.10;;;12.60;97.00;;;;;;5013250;28;20450;-81
2022/09/23 04:22:21;;;;;;;2.50;2.40;;;12.70;96.70;;;;;;5005619;28;20475;-81
2022/09/23 04:24:49;;;;;;;3.73;2.97;;;12.70;96.60;;;;;;5011183;28;20845;-80
2022/09/23 04:27:16;;;;;;;2.60;2.40;;;12.30;96.80;;;;;;5004954;28;20454;-82
2022/09/23 04:29:43;;;;;;;3.00;2.77;;;12.30;97.50;;;;;;5014934;28;20868;-81
2022/09/23 04:32:57;;;;;;;5.97;3.10;;;12.30;97.40;;;;;;5063465;22;21012;-83
2022/09/23 04:35:45;;;;;;;7.47;3.90;;;12.10;97.50;;;;;;5041878;28;20461;-83
2022/09/23 04:38:22;;;;;;;5.57;3.23;;;12.00;97.90;;;;;;5039946;28;20478;-85
2022/09/23 04:40:53;;;;;;;9.07;4.77;;;12.00;98.20;;;;;;5034752;28;20437;-83
2022/09/23 04:43:35;;;;;;;6.50;4.30;;;12.10;98.30;;;;;;5049495;28;20464;-83
2022/09/23 04:46:24;;;;;;;6.80;3.47;;;12.20;98.20;;;;;;5051507;28;20442;-82
2022/09/23 04:49:11;;;;;;;6.20;3.93;;;12.10;97.90;;;;;;5038132;28;20445;-82
2022/09/23 04:51:44;;;;;;;6.00;3.23;;;12.00;98.00;;;;;;5052348;28;21086;-84
2022/09/23 04:54:20;;;;;;;5.80;3.50;;;12.00;98.10;;;;;;5037121;28;21013;-84
2022/09/23 04:56:48;;;;;;;3.10;2.83;;;12.20;97.90;;;;;;5035968;28;20438;-84
2022/09/23 04:59:23;;;;;;;5.17;3.27;;;12.10;97.70;;;;;;5037948;28;20441;-82
2022/09/23 05:01:53;;;;;;;2.80;2.60;;;12.00;97.80;;;;;;5034622;28;20482;-83
2022/09/23 05:04:23;;;;;;;3.23;3.00;;;12.00;97.90;;;;;;5033308;28;20492;-83
2022/09/23 05:07:05;;;;;;;3.67;3.10;;;11.90;98.10;;;;;;5048910;28;20473;-83
2022/09/23 05:09:41;;;;;;;4.17;2.40;;;12.00;98.40;;;;;;5032856;28;21176;-84
2022/09/23 05:12:14;;;;;;;4.53;3.47;;;12.10;98.20;;;;;;5031764;28;20552;-83
2022/09/23 05:14:43;;;;;;;4.07;3.10;;;12.20;98.10;;;;;;5048273;28;21205;-84
2022/09/23 05:17:19;;;;;;;4.30;3.03;;;12.00;97.90;;;;;;5032298;28;20895;-83
2022/09/23 05:20:05;;;;;;;3.57;3.23;;;12.20;98.10;;;;;;5041486;28;21162;-82
2022/09/23 05:22:43;;;;;;;4.43;2.83;;;12.30;97.70;;;;;;5051757;28;20475;-82
2022/09/23 05:25:16;;;;;;;2.80;2.60;;;12.20;97.40;;;;;;5031563;28;20812;-81
2022/09/23 05:27:49;;;;;;;3.30;2.60;;;12.20;97.50;;;;;;5051646;28;20835;-83
2022/09/23 05:30:26;;;;;;;6.27;3.13;;;12.10;97.40;;;;;;5028180;28;20441;-84
2022/09/23 05:32:55;;;;;;;10.93;3.57;;;11.90;97.60;;;;;;5027262;28;21143;-83
2022/09/23 05:35:25;;;;;;;5.10;2.93;;;11.80;97.80;;;;;;5053131;28;20469;-83
2022/09/23 05:38:02;;;;;;;7.90;3.20;;;11.80;97.90;;;;;;5048828;28;20449;-84
2022/09/23 05:40:34;;;;;;;5.27;3.70;;;11.80;97.80;;;;;;5066324;28;20882;-83
2022/09/23 05:43:03;;;;;;;4.03;3.43;;;11.90;97.80;;;;;;5039383;28;20453;-82
2022/09/23 05:45:32;;;;;;;3.33;3.00;;;12.20;97.20;;;;;;5055068;28;20469;-82
2022/09/23 05:48:20;;;;;;;4.77;2.90;;;12.20;97.00;;;;;;5038198;28;20441;-83
2022/09/23 05:50:55;;;;;;;3.47;3.17;;;12.20;96.60;;;;;;5037635;28;20464;-82
2022/09/23 05:53:30;;;;;;;6.93;3.60;;;12.40;96.50;;;;;;5051611;28;20441;-83
2022/09/23 05:56:04;;;;;;;3.67;2.97;;;12.30;96.40;;;;;;5054954;28;20922;-84
2022/09/23 05:58:34;;;;;;;4.13;3.73;;;12.40;96.60;;;;;;5054652;28;20484;-84
2022/09/23 06:01:16;;;;;;;3.10;2.90;;;12.40;96.80;;;;;;5062713;28;20460;-83
2022/09/23 06:03:48;;;;;;;6.47;3.40;;;12.40;96.60;;;;;;5042620;28;20480;-84
2022/09/23 06:06:30;;;;;;;5.73;3.17;;;12.60;96.60;;;;;;5041069;28;20437;-82
2022/09/23 06:09:14;;;;;;;3.20;2.90;;;12.70;96.30;;;;;;5055784;28;20864;-83
2022/09/23 06:11:45;;;;;;;4.33;3.00;;;12.60;95.90;;;;;;5039477;28;20526;-83
2022/09/23 06:14:18;;;;;;;2.70;2.50;;;12.50;96.00;;;;;;5035225;28;20571;-84
2022/09/23 06:16:48;;;;;;;3.30;3.07;;;12.60;95.60;;;;;;5037042;28;20846;-83
2022/09/23 06:19:18;;;;;;;4.17;3.20;;;12.40;95.70;;;;;;5037964;28;20523;-83
2022/09/23 06:21:47;;;;;;;2.40;2.20;;;12.60;96.00;;;;;;5052482;28;20548;-83
2022/09/23 06:24:20;;;;;;;3.20;2.53;;;12.70;95.80;;;;;;5054403;28;20453;-83
2022/09/23 06:27:10;;;;;;;3.90;2.77;;;12.70;95.40;;;;;;5037018;28;20458;-83
2022/09/23 06:29:41;;;;;;;2.77;2.57;;;12.60;95.60;;;;;;5053870;28;20939;-83
2022/09/23 06:32:10;;;;;;;4.20;3.00;;;12.90;95.30;;;;;;5024027;28;20518;-83
2022/09/23 06:34:41;;;;;;;4.20;3.03;;;12.90;95.10;;;;;;5037201;28;20484;-83
2022/09/23 06:37:17;;;;;;;3.93;3.10;;;12.80;95.10;;;;;;5070116;28;20445;-84
2022/09/23 06:39:49;;;;;;;2.80;2.60;;;12.70;95.40;;;;;;5050443;28;20455;-83
2022/09/23 06:42:21;;;;;;;3.00;2.80;;;12.80;95.60;;;;;;5035624;28;20472;-83
2022/09/23 06:44:50;;;;;;;4.13;3.77;;;12.90;95.20;;;;;;5031077;28;20460;-82
2022/09/23 06:47:20;;;;;;;2.73;2.53;;;12.90;94.80;;;;;;5034338;28;20929;-83
2022/09/23 06:49:51;;;;;;;3.30;3.00;;;12.90;95.00;;;;;;5034893;28;20504;-83
2022/09/23 06:52:21;;;;;;;5.10;3.23;;;13.00;95.00;;;;;;5049813;28;20967;-82
2022/09/23 06:54:53;;;;;;;3.80;3.20;;;13.00;94.80;;;;;;5035583;28;21257;-83
2022/09/23 06:57:23;;;;;;;3.83;2.73;;;12.70;95.00;;;;;;5048766;28;20460;-81
2022/09/23 06:59:58;;;;;;;2.73;2.53;;;13.00;94.70;;;;;;5050139;28;20453;-83
2022/09/23 07:02:33;;;;;;;4.17;3.20;;;13.10;94.30;;;;;;5031556;28;20477;-83
2022/09/23 07:05:12;;;;;;;3.40;3.10;;;13.10;94.40;;;;;;5037045;28;20453;-83
2022/09/23 07:07:45;;;;;;;2.97;2.67;;;13.20;94.30;;;;;;5034152;28;20489;-83
2022/09/23 07:10:23;;;;;;;4.17;2.80;;;14.40;94.10;;;;;;5050151;28;20859;-83
2022/09/23 07:13:03;;;;;;;3.20;2.90;;;17.10;88.70;;;;;;5026710;28;20477;-84
2022/09/23 07:15:38;;;;;;;3.00;2.70;;;18.90;78.80;;;;;;5030068;28;20472;-84
2022/09/23 07:18:07;;;;;;;6.47;2.47;;;19.40;73.80;;;;;;5046369;28;20495;-82
2022/09/23 07:20:37;;;;;;;4.00;2.80;;;19.40;71.30;;;;;;5071590;28;20433;-82
2022/09/23 07:23:06;;;;;;;3.90;2.40;;;19.70;70.20;;;;;;5071197;28;20453;-82
2022/09/23 07:26:02;;;;;;;6.03;2.87;;;20.20;67.70;;;;;;5055229;28;20452;-82
2022/09/23 07:28:35;;;;;;;3.40;2.87;;;20.10;66.40;;;;;;5043463;28;20441;-83
2022/09/23 07:31:07;;;;;;;2.77;2.57;;;20.70;66.00;;;;;;5032765;28;20458;-82
2022/09/23 07:33:46;;;;;;;2.57;2.30;;;20.40;65.30;;;;;;5058320;28;20444;-82
2022/09/23 07:36:20;;;;;;;3.70;2.93;;;21.70;61.20;;;;;;5046432;28;20480;-82
2022/09/23 07:38:59;;;;;;;4.33;3.07;;;21.70;59.10;;;;;;5030557;28;20440;-83
2022/09/23 07:41:43;;;;;;;2.93;2.70;;;21.60;59.80;;;;;;5032358;28;20564;-84
2022/09/23 07:44:15;;;;;;;3.07;2.87;;;22.00;58.70;;;;;;5033409;28;20503;-82
2022/09/23 07:46:45;;;;;;;4.23;3.70;;;23.10;57.30;;;;;;5023936;28;20696;-83
2022/09/23 07:49:18;;;;;;;3.57;3.07;;;22.60;56.60;;;;;;5032972;28;20520;-81
2022/09/23 07:51:47;;;;;;;4.13;3.50;;;22.30;56.90;;;;;;5032592;28;20461;-83
2022/09/23 07:54:17;;;;;;;3.23;2.90;;;21.30;58.90;;;;;;5040323;28;20441;-83
2022/09/23 07:56:52;;;;;;;3.47;3.23;;;20.30;60.30;;;;;;5044931;28;20449;-83
2022/09/23 07:59:21;;;;;;;4.20;3.43;;;18.90;65.20;;;;;;5050384;28;20429;-83
2022/09/23 08:01:53;;;;;;;4.87;3.23;;;17.80;69.70;;;;;;5033788;28;20473;-81
2022/09/23 08:04:35;;;;;;;3.03;2.73;;;17.30;73.90;;;;;;5042126;28;20455;-82
2022/09/23 08:07:09;;;;;;;3.70;2.70;;;16.80;76.80;;;;;;5034209;28;20463;-84
2022/09/23 08:09:46;;;;;;;3.57;3.27;;;16.40;79.30;;;;;;5027727;28;20556;-84
2022/09/23 08:12:16;;;;;;;3.47;3.17;;;16.10;81.20;;;;;;5032736;28;20519;-83
2022/09/23 08:14:49;;;;;;;4.50;3.60;;;16.10;82.20;;;;;;5033236;28;20477;-84
2022/09/23 08:17:19;;;;;;;5.53;3.20;;;16.00;82.90;;;;;;5033531;28;20437;-83
2022/09/23 08:19:48;;;;;;;4.83;3.50;;;16.00;83.50;;;;;;5034055;28;20527;-82
2022/09/23 08:22:16;;;;;;;5.07;3.30;;;15.80;84.50;;;;;;5030897;28;20535;-84
2022/09/23 08:24:48;;;;;;;4.43;3.13;;;15.70;85.00;;;;;;5048449;28;20483;-83
2022/09/23 08:27:31;;;;;;;4.03;3.53;;;15.40;87.00;;;;;;5025225;28;20453;-83
2022/09/23 08:30:09;;;;;;;4.73;4.13;;;15.50;87.70;;;;;;5031083;28;20444;-82
2022/09/23 08:32:39;;;;;;;4.30;3.33;;;15.40;88.40;;;;;;5021106;28;20452;-84
2022/09/23 08:35:08;;;;;;;6.23;3.43;;;15.90;87.50;;;;;;5058900;28;20485;-83
2022/09/23 08:37:42;;;;;;;3.67;3.30;;;16.00;86.60;;;;;;5032398;28;20500;-84
2022/09/23 08:40:09;;;;;;;6.93;4.07;;;15.90;86.70;;;;;;5028957;28;20453;-84
2022/09/23 08:42:42;;;;;;;6.00;3.80;;;16.00;86.50;;;;;;5048780;28;20461;-83
2022/09/23 08:45:27;;;;;;;3.60;3.30;;;15.90;87.00;;;;;;5031783;28;20480;-84
2022/09/23 08:48:05;;;;;;;3.40;3.10;;;15.80;88.00;;;;;;5047406;28;20464;-83
2022/09/23 08:50:45;;;;;;;5.70;3.30;;;16.00;87.70;;;;;;5025731;28;20931;-83
2022/09/23 08:53:31;;;;;;;3.60;3.30;;;16.20;86.90;;;;;;5029500;28;20481;-83
2022/09/23 08:56:01;;;;;;;5.23;3.43;;;16.30;86.20;;;;;;5051049;28;20476;-84
2022/09/23 08:58:47;;;;;;;3.07;2.70;;;16.40;86.30;;;;;;5044338;28;20540;-81
2022/09/23 09:01:48;;;;;;;4.50;3.00;;;16.40;86.10;;;;;;5046907;28;20468;-84
2022/09/23 09:04:41;;;;;;;3.87;3.43;;;16.80;83.90;;;;;;5031899;28;20448;-84
2022/09/23 09:07:08;;;;;;;4.70;3.40;;;16.80;84.00;;;;;;5055596;28;20452;-84
2022/09/23 09:10:09;;;;;;;4.17;3.10;;;16.50;84.70;;;;;;5017357;28;20560;-81
2022/09/23 09:12:49;;;;;;;3.83;3.03;;;16.20;86.40;;;;;;5015183;28;21013;-84
2022/09/23 09:15:27;;;;;;;3.53;3.17;;;16.00;86.90;;;;;;5013183;28;20497;-83
2022/09/23 09:18:10;;;;;;;3.10;2.80;;;16.20;87.10;;;;;;5011249;28;20465;-84
2022/09/23 09:20:47;;;;;;;4.07;2.90;;;16.60;87.10;;;;;;5012611;28;21250;-84
2022/09/23 09:23:33;;;;;;;5.23;3.20;;;17.10;85.10;;;;;;5011782;28;20495;-83
2022/09/23 09:26:01;;;;;;;3.30;3.00;;;17.30;83.90;;;;;;5014813;28;20473;-82
2022/09/23 09:28:42;;;;;;;3.83;3.03;;;17.50;83.60;;;;;;5019626;28;20477;-83
2022/09/23 09:31:36;;;;;;;3.53;3.23;;;17.50;82.20;;;;;;5015105;28;20487;-84
2022/09/23 09:34:15;;;;;;;4.13;3.73;;;17.30;83.20;;;;;;5012094;28;20543;-83
2022/09/23 09:36:47;;;;;;;2.67;2.47;;;17.40;82.10;;;;;;5010044;28;20480;-83
2022/09/23 09:39:14;;;;;;;3.57;3.07;;;17.50;82.70;;;;;;5012748;28;20465;-84
2022/09/23 09:41:46;;;;;;;4.47;3.27;;;17.50;82.30;;;;;;5003118;28;20535;-83
2022/09/23 09:44:27;;;;;;;2.97;2.77;;;18.30;80.70;;;;;;5022813;28;20728;-82
2022/09/23 09:47:14;;;;;;;4.30;3.13;;;19.20;78.10;;;;;;5040709;28;20445;-84
2022/09/23 09:50:03;;;;;;;4.63;3.20;;;19.50;74.10;;;;;;5021716;28;20450;-82
2022/09/23 09:52:31;;;;;;;3.93;3.57;;;20.50;72.50;;;;;;5025671;28;20481;-83
2022/09/23 09:55:27;;;;;;;3.40;3.10;;;20.90;67.60;;;;;;5011691;28;20490;-81
2022/09/23 09:58:03;;;;;;;3.90;3.60;;;21.30;65.60;;;;;;5006488;28;20454;-84
2022/09/23 10:00:29;;;;;;;3.90;3.30;;;21.30;63.80;;;;;;5013337;28;22663;-83
2022/09/23 10:03:00;;;;;;;3.40;3.10;;;20.70;65.40;;;;;;5011106;28;20473;-82
2022/09/23 10:05:32;;;;;;;2.90;2.70;;;21.00;64.20;;;;;;5009216;28;20524;-83
2022/09/23 10:08:36;;;;;;;3.50;2.93;;;20.80;64.20;;;;;;5010115;28;21689;-83
2022/09/23 10:11:05;;;;;;;4.83;2.57;;;20.70;65.20;;;;;;5010535;28;20461;-83
2022/09/23 10:13:32;;;;;;;3.00;2.70;;;20.40;65.30;;;;;;5003443;28;20469;-84
2022/09/23 10:16:02;;;;;;;2.97;2.30;;;20.70;64.50;;;;;;5011080;28;21521;-85
2022/09/23 10:18:46;;;;;;;3.53;2.40;;;21.10;63.00;;;;;;5026728;28;20457;-84
2022/09/23 10:21:19;;;;;;;2.37;2.10;;;21.40;62.20;;;;;;5025973;28;20991;-83
2022/09/23 10:23:56;;;;;;;2.50;2.30;;;22.10;59.70;;;;;;5011013;28;20595;-84
2022/09/23 10:26:33;;;;;;;4.10;2.60;;;21.60;59.10;;;;;;5002726;28;20457;-82
2022/09/23 10:29:19;;;;;;;2.87;2.63;;;20.80;62.20;;;;;;5012309;28;20468;-83
2022/09/23 10:31:46;;;;;;;3.57;2.43;;;20.50;64.10;;;;;;5010345;28;20468;-83
2022/09/23 10:34:25;;;;;;;3.20;2.70;;;20.90;63.40;;;;;;5010704;28;20633;-82
2022/09/23 10:37:08;;;;;;;3.00;2.70;;;20.80;62.80;;;;;;5013631;28;20527;-82
2022/09/23 10:48:46;;;;;;;2.70;2.27;;;20.50;65.80;;;;;;5010366;28;20453;-83
2022/09/23 10:51:37;;;;;;;3.33;3.07;;;20.90;64.10;;;;;;5003092;28;20460;-83
2022/09/23 10:54:23;;;;;;;2.93;2.73;;;20.60;64.10;;;;;;5011129;28;20700;-82
2022/09/23 10:56:57;;;;;;;2.90;2.40;;;20.40;65.30;;;;;;5008138;28;20569;-84
2022/09/23 11:00:09;;;;;;;2.40;2.20;;;20.60;65.10;;;;;;5009848;28;20489;-83
2022/09/23 11:02:51;;;;;;;2.60;2.23;;;21.70;61.80;;;;;;5012553;28;20839;-82
2022/09/23 11:05:37;;;;;;;4.60;2.53;;;22.10;58.80;;;;;;5011229;28;20469;-82
2022/09/23 11:08:42;;;;;;;2.40;2.20;;;21.60;58.80;;;;;;5010093;28;20507;-82
2022/09/23 11:11:19;;;;;;;2.80;2.50;;;21.60;59.90;;;;;;4982893;28;20445;-82
2022/09/23 11:14:23;;;;;;;4.90;2.60;;;22.00;59.40;;;;;;5015410;28;20545;-82
2022/09/23 11:17:21;;;;;;;2.97;2.70;;;21.60;59.60;;;;;;5021540;28;20481;-84
2022/09/23 11:20:08;;;;;;;2.90;2.60;;;21.60;58.80;;;;;;5014023;28;20959;-84
2022/09/23 11:22:42;;;;;;;3.77;2.13;;;21.40;58.60;;;;;;5012869;28;20535;-83
2022/09/23 11:25:55;;;;;;;2.60;2.10;;;20.90;59.60;;;;;;5026967;28;20503;-83
2022/09/23 11:28:46;;;;;;;2.70;2.50;;;20.90;60.30;;;;;;5014010;28;20438;-83
2022/09/23 11:31:23;;;;;;;3.30;2.50;;;21.30;60.40;;;;;;5027081;28;20545;-85
2022/09/23 11:34:37;;;;;;;3.67;2.67;;;21.00;60.90;;;;;;5014521;28;20925;-84
2022/09/23 11:37:30;;;;;;;4.03;2.60;;;20.50;61.70;;;;;;5014713;28;20476;-83
2022/09/23 11:40:22;;;;;;;2.00;1.80;;;20.90;61.40;;;;;;5009872;28;20456;-83
2022/09/23 11:42:58;;;;;;;2.60;2.40;;;20.80;61.80;;;;;;5023471;28;20545;-82
2022/09/23 11:45:31;;;;;;;3.33;2.77;;;20.80;62.00;;;;;;5017711;28;20472;-83
2022/09/23 11:48:36;;;;;;;2.60;2.13;;;20.80;62.00;;;;;;5013937;28;20540;-82
2022/09/23 11:51:33;;;;;;;2.40;2.20;;;20.90;61.40;;;;;;5013504;28;20528;-85
2022/09/23 11:55:01;;;;;;;3.20;2.10;;;20.70;61.00;;;;;;5022332;28;20481;-82
2022/09/23 11:58:03;;;;;;;2.57;2.20;;;21.00;60.50;;;;;;5001091;28;20509;-82
2022/09/23 12:01:20;;;;;;;2.53;2.10;;;21.20;59.60;;;;;;5021760;28;20457;-81
2022/09/23 12:04:45;;;;;;;1.80;1.70;;;21.10;60.10;;;;;;5016603;28;20460;-83
2022/09/23 12:08:10;;;;;;;2.93;2.47;;;21.30;59.60;;;;;;5032165;28;20457;-81
2022/09/23 12:10:49;;;;;;;2.30;2.10;;;21.50;59.40;;;;;;5022354;28;20529;-82
2022/09/23 12:13:54;;;;;;;3.17;2.27;;;21.50;59.40;;;;;;5024035;28;20453;-82
2022/09/23 12:17:14;;;;;;;5.50;1.90;;;21.60;58.90;;;;;;5024158;28;20904;-81
2022/09/23 12:20:16;;;;;;;2.77;1.97;;;21.60;57.70;;;;;;5000236;28;20442;-81
2022/09/23 12:23:12;;;;;;;7.23;2.17;;;21.30;57.80;;;;;;5024761;28;20489;-81
2022/09/23 12:26:16;;;;;;;4.03;2.30;;;21.40;57.40;;;;;;5039156;28;20923;-81
2022/09/23 12:29:01;;;;;;;3.60;2.30;;;21.10;57.50;;;;;;5024360;28;20517;-80
2022/09/23 12:31:49;;;;;;;2.33;2.17;;;21.30;57.40;;;;;;5032677;28;20476;-81
2022/09/23 12:34:50;;;;;;;2.23;2.03;;;21.40;56.80;;;;;;5028908;28;20479;-82
2022/09/23 12:37:39;;;;;;;3.10;2.07;;;21.20;57.00;;;;;;5038522;28;20541;-83
2022/09/23 12:40:43;;;;;;;4.17;2.10;;;21.30;57.20;;;;;;5013785;28;20468;-83
2022/09/23 12:43:48;;;;;;;1.70;1.60;;;21.00;57.30;;;;;;5034325;28;20444;-82
2022/09/23 12:46:28;;;;;;;1.77;1.67;;;21.00;56.70;;;;;;5016198;28;20476;-83
2022/09/23 12:49:00;;;;;;;2.43;1.50;;;21.10;57.60;;;;;;5015333;28;20444;-82
2022/09/23 12:51:39;;;;;;;2.70;1.90;;;21.40;56.10;;;;;;5018239;28;21077;-81
2022/09/23 12:54:25;;;;;;;2.20;2.00;;;21.40;56.10;;;;;;5031974;28;21273;-83
2022/09/23 12:57:19;;;;;;;;;;;;;;;;;;;;;
2022/09/23 13:10:04;;;;;;;;;;;;;;;;;;;;;
2022/09/23 13:13:03;;;;;;;3.50;1.90;;;21.20;56.10;;;;;;5017501;28;20545;-84
2022/09/23 13:15:50;;;;;;;1.77;1.67;;;21.60;55.30;;;;;;5010926;28;22790;-83
2022/09/23 13:19:19;;;;;;;2.00;1.83;;;21.70;54.90;;;;;;5004840;28;20910;-83
2022/09/23 13:21:48;;;;;;;2.10;1.80;;;21.60;55.90;;;;;;5031031;28;20466;-84
2022/09/23 13:25:20;;;;;;;5.23;1.70;;;21.50;56.20;;;;;;5027129;28;20453;-83
2022/09/23 13:28:28;;;;;;;2.10;1.90;;;21.30;56.00;;;;;;5036969;28;20983;-84
2022/09/23 13:31:30;;;;;;;1.93;1.80;;;21.30;56.10;;;;;;5020771;28;20457;-82
2022/09/23 13:34:14;;;;;;;2.33;2.03;;;21.30;56.10;;;;;;5001899;28;20487;-81
2022/09/23 13:36:49;;;;;;;1.93;1.73;;;21.30;56.70;;;;;;5018363;28;21222;-83
2022/09/23 13:39:29;;;;;;;2.43;1.90;;;21.10;56.90;;;;;;5022033;28;20457;-84
2022/09/23 13:42:25;;;;;;;2.57;2.30;;;21.00;57.00;;;;;;5019931;28;20538;-82
2022/09/23 13:45:03;;;;;;;3.23;2.30;;;21.00;57.70;;;;;;5018275;28;20474;-82
2022/09/23 13:47:49;;;;;;;3.23;2.43;;;21.40;56.80;;;;;;5016262;28;20935;-82
2022/09/23 13:50:57;;;;;;;3.83;2.73;;;21.30;56.90;;;;;;5014319;28;20461;-81
2022/09/23 13:53:30;;;;;;;3.30;2.50;;;21.00;57.60;;;;;;5027946;28;20551;-82
2022/09/23 13:56:14;;;;;;;4.10;3.40;;;20.60;58.80;;;;;;5022478;28;21020;-83
2022/09/23 13:58:53;;;;;;;3.20;2.90;;;20.40;59.20;;;;;;5039461;28;20458;-80
2022/09/23 14:01:38;;;;;;;3.00;2.70;;;20.30;59.90;;;;;;5030371;28;20484;-83
2022/09/23 14:04:28;;;;;;;3.57;3.07;;;20.20;60.00;;;;;;5042375;28;21317;-80
2022/09/23 14:07:33;;;;;;;4.77;3.10;;;20.40;60.50;;;;;;5040137;28;20441;-81
2022/09/23 14:10:10;;;;;;;3.67;3.37;;;21.00;58.90;;;;;;5029474;28;20472;-82
2022/09/23 14:13:00;;;;;;;3.10;2.50;;;20.60;59.10;;;;;;5040967;28;20506;-82
2022/09/23 14:19:19;;;;;;;3.40;2.40;;;20.80;59.40;;;;;;4999040;28;20429;-82